createdAt,value
2023-05-13T00:00:31.735Z,13.32
2023-05-13T00:02:58.465Z,13.21
2023-05-13T00:09:45.976Z,13.14
2023-05-13T00:12:32.432Z,13.17
2023-05-13T00:15:14.157Z,13.37
2023-05-13T00:17:40.733Z,13.37
2023-05-13T00:20:07.983Z,13.33
2023-05-13T00:22:34.545Z,13.37
2023-05-13T00:25:19.845Z,13.37
2023-05-13T00:27:46.430Z,13.34
2023-05-13T00:30:13.240Z,13.31
2023-05-13T00:32:39.793Z,13.32
2023-05-13T00:35:06.610Z,13.22
2023-05-13T00:38:31.273Z,13.23
2023-05-13T00:41:28.107Z,13.22
2023-05-13T00:43:56.829Z,13.35
2023-05-13T00:46:24.615Z,13.34
2023-05-13T00:48:51.950Z,13.34
2023-05-13T00:51:18.807Z,13.37
2023-05-13T00:53:45.571Z,13.44
2023-05-13T00:58:47.677Z,13.48
2023-05-13T01:01:45.000Z,13.44
2023-05-13T01:04:27.452Z,13.40
2023-05-13T01:11:05.949Z,13.15
2023-05-13T01:13:36.996Z,12.80
2023-05-13T01:16:25.772Z,13.05
2023-05-13T01:19:05.584Z,13.07
2023-05-13T01:21:36.319Z,12.92
2023-05-13T01:24:02.872Z,12.94
2023-05-13T01:26:29.559Z,12.84
2023-05-13T01:28:56.279Z,13.07
2023-05-13T01:31:24.114Z,13.26
2023-05-13T01:33:51.118Z,13.09
2023-05-13T01:37:08.722Z,13.14
2023-05-13T01:40:28.058Z,13.33
2023-05-13T01:42:58.252Z,13.38
2023-05-13T01:45:24.810Z,13.07
2023-05-13T01:47:51.369Z,13.11
2023-05-13T01:50:17.977Z,12.97
2023-05-13T01:52:44.537Z,12.99
2023-05-13T01:55:29.295Z,12.97
2023-05-13T01:57:55.867Z,13.00
2023-05-13T02:00:22.888Z,12.84
2023-05-13T02:02:49.724Z,12.86
2023-05-13T02:09:29.764Z,12.90
2023-05-13T02:11:56.330Z,13.00
2023-05-13T02:14:22.877Z,12.77
2023-05-13T02:16:49.543Z,12.76
2023-05-13T02:19:16.187Z,12.76
2023-05-13T02:21:43.683Z,12.65
2023-05-13T02:24:10.585Z,12.54
2023-05-13T02:26:37.235Z,12.54
2023-05-13T02:29:03.755Z,12.77
2023-05-13T02:31:30.321Z,12.76
2023-05-13T02:33:56.848Z,12.71
2023-05-13T02:36:45.511Z,12.71
2023-05-13T02:39:31.053Z,12.54
2023-05-13T02:41:57.965Z,12.33
2023-05-13T02:44:24.498Z,12.14
2023-05-13T02:46:51.407Z,12.19
2023-05-13T02:49:17.941Z,12.45
2023-05-13T02:51:44.532Z,12.38
2023-05-13T02:57:12.690Z,12.31
2023-05-13T02:59:39.241Z,12.04
2023-05-13T03:02:06.056Z,11.94
2023-05-13T03:04:32.591Z,12.21
2023-05-13T03:06:59.129Z,12.03
2023-05-13T03:09:44.702Z,12.10
2023-05-13T03:15:45.991Z,12.49
2023-05-13T03:18:12.729Z,12.32
2023-05-13T03:20:39.387Z,12.18
2023-05-13T03:23:07.003Z,12.35
2023-05-13T03:25:48.759Z,12.05
2023-05-13T03:28:15.444Z,11.92
2023-05-13T03:30:42.626Z,12.09
2023-05-13T03:33:09.409Z,12.19
2023-05-13T03:35:36.008Z,12.11
2023-05-13T03:38:02.536Z,12.10
2023-05-13T03:40:47.660Z,12.14
2023-05-13T03:43:14.300Z,12.06
2023-05-13T03:45:40.973Z,12.14
2023-05-13T03:48:07.521Z,12.12
2023-05-13T03:51:31.214Z,12.14
2023-05-13T03:57:01.773Z,12.43
2023-05-13T03:59:28.327Z,12.35
2023-05-13T04:01:57.822Z,12.40
2023-05-13T04:04:24.562Z,12.47
2023-05-13T04:06:51.146Z,12.34
2023-05-13T04:09:32.954Z,12.24
2023-05-13T04:11:59.504Z,12.27
2023-05-13T04:14:26.165Z,12.43
2023-05-13T04:16:52.732Z,12.29
2023-05-13T04:19:53.490Z,12.48
2023-05-13T04:25:58.178Z,12.62
2023-05-13T04:28:24.783Z,12.59
2023-05-13T04:30:51.329Z,12.29
2023-05-13T04:33:17.895Z,12.53
2023-05-13T04:35:44.677Z,12.19
2023-05-13T04:38:11.927Z,12.49
2023-05-13T04:40:50.644Z,12.66
2023-05-13T04:43:17.155Z,12.33
2023-05-13T04:45:47.036Z,12.62
2023-05-13T04:48:13.690Z,12.59
2023-05-13T04:54:23.270Z,12.50
2023-05-13T04:59:42.722Z,12.64
2023-05-13T05:02:09.435Z,12.51
2023-05-13T05:04:36.576Z,12.56
2023-05-13T05:07:03.184Z,12.51
2023-05-13T05:09:30.322Z,12.61
2023-05-13T05:11:57.079Z,12.64
2023-05-13T05:14:23.656Z,12.81
2023-05-13T05:16:50.408Z,12.58
2023-05-13T05:33:56.787Z,12.79
2023-05-13T05:36:27.883Z,12.74
2023-05-13T05:39:10.990Z,12.83
2023-05-13T05:41:37.575Z,12.79
2023-05-13T05:44:04.198Z,12.65
2023-05-13T05:46:31.621Z,12.73
2023-05-13T05:50:00.754Z,12.81
2023-05-13T05:53:22.692Z,12.19
2023-05-13T05:55:51.129Z,12.56
2023-05-13T05:58:18.989Z,12.43
2023-05-13T06:00:45.783Z,12.63
2023-05-13T06:03:12.527Z,12.58
2023-05-13T06:05:39.555Z,12.66
2023-05-13T06:08:06.257Z,12.75
2023-05-13T06:10:32.884Z,12.76
2023-05-13T06:12:59.383Z,12.88
2023-05-13T06:15:26.199Z,12.83
2023-05-13T06:17:52.859Z,12.86
2023-05-13T06:20:19.816Z,13.06
2023-05-13T06:22:46.574Z,13.14
2023-05-13T06:25:13.157Z,13.19
2023-05-13T06:27:42.326Z,13.21
2023-05-13T06:30:09.046Z,13.15
2023-05-13T06:32:35.664Z,13.09
2023-05-13T06:35:02.598Z,13.27
2023-05-13T06:37:29.136Z,13.43
2023-05-13T06:40:11.520Z,13.21
2023-05-13T06:42:40.549Z,13.12
2023-05-13T06:45:08.506Z,12.95
2023-05-13T06:47:35.809Z,13.16
2023-05-13T06:50:30.525Z,13.13
2023-05-13T06:53:17.114Z,13.11
2023-05-13T06:55:43.754Z,13.31
2023-05-13T06:58:10.664Z,13.12
2023-05-13T07:00:38.585Z,13.03
2023-05-13T07:03:06.776Z,12.82
2023-05-13T07:05:34.318Z,13.15
2023-05-13T07:08:21.362Z,13.15
2023-05-13T07:10:47.951Z,13.53
2023-05-13T07:13:14.595Z,13.67
2023-05-13T07:15:41.253Z,13.62
2023-05-13T07:18:09.147Z,13.73
2023-05-13T07:37:52.976Z,13.61
2023-05-13T07:40:21.186Z,13.63
2023-05-13T07:42:48.182Z,13.98
2023-05-13T07:45:14.766Z,13.38
2023-05-13T07:47:44.255Z,13.92
2023-05-13T07:50:11.779Z,14.12
2023-05-13T07:52:38.661Z,14.04
2023-05-13T07:55:06.007Z,14.23
2023-05-13T07:57:32.604Z,14.37
2023-05-13T08:05:19.652Z,14.30
2023-05-13T08:10:22.013Z,14.34
2023-05-13T08:12:53.554Z,14.36
2023-05-13T08:15:21.004Z,13.90
2023-05-13T08:17:47.811Z,13.54
2023-05-13T08:20:15.252Z,13.46
2023-05-13T08:22:42.977Z,13.79
2023-05-13T08:25:13.355Z,13.79
2023-05-13T08:27:39.919Z,14.00
2023-05-13T08:30:07.302Z,14.03
2023-05-13T08:32:34.216Z,13.91
2023-05-13T08:35:01.392Z,14.01
2023-05-13T08:37:28.376Z,14.24
2023-05-13T08:39:56.558Z,14.05
2023-05-13T08:53:13.808Z,14.08
2023-05-13T08:55:40.561Z,13.76
2023-05-13T08:58:07.878Z,13.85
2023-05-13T09:00:35.187Z,14.25
2023-05-13T09:03:05.165Z,14.51
2023-05-13T09:05:37.760Z,14.86
2023-05-13T09:08:09.562Z,14.73
2023-05-13T09:10:37.434Z,14.84
2023-05-13T09:13:04.876Z,14.39
2023-05-13T09:15:32.195Z,14.83
2023-05-13T09:18:01.235Z,15.15
2023-05-13T09:20:28.289Z,15.31
2023-05-13T09:23:07.094Z,15.34
2023-05-13T09:25:34.804Z,15.55
2023-05-13T09:28:03.816Z,15.68
2023-05-13T09:30:35.219Z,15.12
2023-05-13T09:33:13.514Z,15.18
2023-05-13T09:35:41.427Z,15.25
2023-05-13T09:40:59.793Z,14.92
2023-05-13T09:43:27.556Z,14.78
2023-05-13T09:45:55.885Z,14.99
2023-05-13T09:48:27.060Z,15.14
2023-05-13T09:50:55.388Z,15.25
2023-05-13T09:53:22.290Z,15.25
2023-05-13T09:55:51.765Z,15.06
2023-05-13T09:58:22.113Z,14.90
2023-05-13T10:09:10.409Z,15.76
2023-05-13T10:11:37.124Z,16.01
2023-05-13T10:14:06.564Z,15.89
2023-05-13T10:16:33.709Z,16.11
2023-05-13T10:19:01.009Z,16.20
2023-05-13T10:21:28.192Z,16.16
2023-05-13T10:23:59.423Z,15.98
2023-05-13T10:26:26.428Z,15.85
2023-05-13T10:40:02.784Z,15.60
2023-05-13T10:42:55.376Z,15.62
2023-05-13T10:45:32.187Z,15.98
2023-05-13T10:48:07.065Z,16.09
2023-05-13T10:50:36.937Z,16.03
2023-05-13T10:53:09.093Z,15.81
2023-05-13T10:55:47.174Z,15.69
2023-05-13T10:58:15.267Z,15.98
2023-05-13T11:00:51.454Z,15.89
2023-05-13T11:03:18.189Z,15.72
2023-05-13T11:05:47.397Z,16.05
2023-05-13T11:08:36.182Z,15.84
2023-05-13T11:11:21.015Z,15.97
2023-05-13T11:13:53.234Z,15.82
2023-05-13T11:16:21.123Z,15.52
2023-05-13T11:18:49.189Z,15.67
2023-05-13T11:21:16.568Z,15.44
2023-05-13T11:23:56.788Z,15.53
2023-05-13T11:26:23.781Z,15.41
2023-05-13T11:28:58.146Z,15.20
2023-05-13T11:31:27.260Z,15.39
2023-05-13T11:34:13.271Z,15.71
2023-05-13T11:36:47.680Z,15.68
2023-05-13T11:50:57.179Z,15.76
2023-05-13T11:53:25.788Z,15.58
2023-05-13T11:55:52.483Z,15.67
2023-05-13T11:58:21.737Z,15.96
2023-05-13T12:00:48.355Z,15.79
2023-05-13T12:03:16.323Z,15.72
2023-05-13T12:05:44.689Z,15.79
2023-05-13T12:08:11.768Z,15.53
2023-05-13T12:10:45.600Z,15.63
2023-05-13T12:13:12.993Z,15.79
2023-05-13T12:15:40.457Z,16.05
2023-05-13T12:18:07.669Z,15.72
2023-05-13T12:20:34.893Z,15.76
2023-05-13T12:23:02.226Z,15.75
2023-05-13T12:25:38.348Z,15.70
2023-05-13T12:30:42.234Z,16.26
2023-05-13T12:33:16.699Z,16.23
2023-05-13T12:35:44.123Z,15.87
2023-05-13T12:38:16.743Z,15.94
2023-05-13T12:40:44.691Z,15.93
2023-05-13T12:43:12.816Z,16.10
2023-05-13T12:45:42.618Z,16.08
2023-05-13T12:48:12.824Z,16.17
2023-05-13T12:50:39.565Z,16.00
2023-05-13T12:53:15.126Z,16.22
2023-05-13T12:55:41.808Z,16.33
2023-05-13T13:00:43.814Z,16.49
2023-05-13T13:03:12.707Z,16.09
2023-05-13T13:05:42.059Z,16.36
2023-05-13T13:08:08.696Z,16.35
2023-05-13T13:10:35.292Z,16.39
2023-05-13T13:13:02.580Z,16.52
2023-05-13T13:15:29.160Z,16.17
2023-05-13T13:20:30.986Z,16.63
2023-05-13T13:22:59.797Z,16.34
2023-05-13T13:25:29.071Z,16.68
2023-05-13T13:27:56.190Z,16.34
2023-05-13T13:30:22.874Z,16.17
2023-05-13T13:32:51.228Z,16.51
2023-05-13T13:35:21.072Z,16.44
2023-05-13T13:37:48.037Z,16.39
2023-05-13T13:40:14.770Z,16.61
2023-05-13T13:42:45.031Z,16.60
2023-05-13T13:45:14.438Z,16.75
2023-05-13T13:56:22.338Z,16.97
2023-05-13T13:58:51.764Z,16.76
2023-05-13T14:01:20.079Z,16.79
2023-05-13T14:03:55.089Z,16.82
2023-05-13T14:06:29.514Z,16.98
2023-05-13T14:09:01.345Z,16.82
2023-05-13T14:11:27.944Z,16.90
2023-05-13T14:14:00.618Z,16.95
2023-05-13T14:16:27.300Z,16.78
2023-05-13T14:18:56.989Z,16.88
2023-05-13T14:21:23.731Z,16.92
2023-05-13T14:23:50.424Z,17.06
2023-05-13T14:26:17.152Z,17.12
2023-05-13T14:28:44.121Z,16.85
2023-05-13T14:31:13.034Z,17.17
2023-05-13T14:33:39.773Z,17.27
2023-05-13T14:36:21.457Z,17.27
2023-05-13T14:38:48.669Z,17.24
2023-05-13T14:41:19.874Z,17.21
2023-05-13T14:43:52.994Z,16.99
2023-05-13T14:46:19.599Z,17.19
2023-05-13T14:48:46.696Z,17.20
2023-05-13T14:51:13.708Z,17.02
2023-05-13T14:53:42.344Z,16.91
2023-05-13T14:56:08.953Z,17.07
2023-05-13T14:58:36.245Z,17.12
2023-05-13T15:01:02.913Z,17.00
2023-05-13T15:03:29.605Z,16.97
2023-05-13T15:06:07.080Z,16.87
2023-05-13T15:08:33.829Z,16.62
2023-05-13T15:11:09.298Z,16.84
2023-05-13T15:13:44.106Z,16.90
2023-05-13T15:16:11.542Z,16.87
2023-05-13T15:18:39.689Z,16.65
2023-05-13T15:23:47.932Z,16.87
2023-05-13T15:26:15.567Z,16.81
2023-05-13T15:28:42.138Z,16.95
2023-05-13T15:31:08.806Z,16.67
2023-05-13T15:33:35.555Z,16.79
2023-05-13T15:41:25.899Z,16.60
2023-05-13T15:43:52.528Z,16.77
2023-05-13T15:46:19.364Z,16.92
2023-05-13T15:48:53.813Z,16.69
2023-05-13T15:51:25.084Z,16.87
2023-05-13T15:53:52.831Z,16.93
2023-05-13T15:56:21.616Z,16.67
2023-05-13T15:58:48.171Z,16.66
2023-05-13T16:01:14.744Z,16.89
2023-05-13T16:03:41.367Z,16.98
2023-05-13T16:06:08.001Z,16.51
2023-05-13T16:08:34.635Z,16.77
2023-05-13T16:11:01.192Z,16.55
2023-05-13T16:13:27.776Z,16.25
2023-05-13T16:15:54.524Z,16.67
2023-05-13T16:18:21.310Z,16.82
2023-05-13T16:20:47.980Z,16.68
2023-05-13T16:23:14.565Z,16.56
2023-05-13T16:25:42.620Z,16.64
2023-05-13T16:28:10.854Z,16.84
2023-05-13T16:30:37.770Z,16.85
2023-05-13T16:33:04.567Z,16.62
2023-05-13T16:35:31.184Z,16.82
2023-05-13T16:37:57.753Z,16.94
2023-05-13T16:40:24.694Z,16.92
2023-05-13T16:42:51.603Z,17.02
2023-05-13T16:45:18.286Z,16.51
2023-05-13T16:47:44.985Z,16.72
2023-05-13T16:50:11.573Z,16.72
2023-05-13T16:52:38.190Z,16.51
2023-05-13T16:55:05.538Z,16.75
2023-05-13T16:57:32.673Z,16.62
2023-05-13T16:59:59.230Z,16.62
2023-05-13T17:02:27.290Z,16.69
2023-05-13T17:04:53.950Z,16.55
2023-05-13T17:07:20.572Z,16.53
2023-05-13T17:09:47.567Z,16.57
2023-05-13T17:12:14.429Z,16.50
2023-05-13T17:19:51.475Z,16.24
2023-05-13T17:22:18.094Z,16.46
2023-05-13T17:24:44.630Z,16.63
2023-05-13T17:27:11.390Z,16.42
2023-05-13T17:29:39.855Z,16.65
2023-05-13T17:32:06.900Z,16.44
2023-05-13T17:34:33.489Z,16.08
2023-05-13T17:37:00.267Z,16.26
2023-05-13T17:44:50.977Z,15.90
2023-05-13T17:47:17.567Z,16.33
2023-05-13T17:49:44.113Z,16.17
2023-05-13T17:52:10.865Z,16.25
2023-05-13T17:58:23.881Z,15.94
2023-05-13T18:00:50.569Z,16.16
2023-05-13T18:03:17.511Z,15.88
2023-05-13T18:05:44.207Z,15.97
2023-05-13T18:08:11.179Z,16.06
2023-05-13T18:10:37.845Z,15.96
2023-05-13T18:13:04.428Z,15.90
2023-05-13T18:15:31.126Z,15.73
2023-05-13T18:17:57.808Z,15.89
2023-05-13T18:20:24.731Z,15.79
2023-05-13T18:22:51.436Z,15.79
2023-05-13T18:25:18.123Z,15.64
2023-05-13T18:27:44.732Z,15.68
2023-05-13T18:30:11.884Z,15.68
2023-05-13T18:32:38.483Z,15.70
2023-05-13T18:35:05.568Z,15.65
2023-05-13T18:37:32.120Z,15.85
2023-05-13T18:39:59.183Z,16.00
2023-05-13T18:42:26.231Z,15.96
2023-05-13T18:44:52.778Z,15.76
2023-05-13T18:47:19.464Z,15.94
2023-05-13T18:53:39.560Z,15.89
2023-05-13T18:55:10.876Z,15.94
2023-05-13T18:57:37.559Z,15.99
2023-05-13T19:00:04.555Z,16.01
2023-05-13T19:02:31.592Z,16.00
2023-05-13T19:04:58.547Z,15.62
2023-05-13T19:07:25.196Z,15.74
2023-05-13T19:09:51.785Z,15.68
2023-05-13T19:12:18.334Z,15.96
2023-05-13T19:14:45.013Z,15.78
2023-05-13T19:17:11.812Z,15.86
2023-05-13T19:19:38.456Z,15.64
2023-05-13T19:22:05.310Z,15.20
2023-05-13T19:24:31.887Z,15.58
2023-05-13T19:26:58.595Z,15.63
2023-05-13T19:29:25.178Z,15.47
2023-05-13T19:31:52.794Z,15.60
2023-05-13T19:34:19.477Z,15.50
2023-05-13T19:36:46.596Z,15.61
2023-05-13T19:39:13.246Z,15.77
2023-05-13T19:41:40.623Z,15.41
2023-05-13T19:44:07.407Z,15.34
2023-05-13T19:46:34.102Z,15.43
2023-05-13T19:49:00.766Z,15.04
2023-05-13T19:51:27.387Z,14.85
2023-05-13T19:53:53.963Z,14.93
2023-05-13T19:56:21.820Z,14.94
2023-05-13T19:58:48.728Z,15.09
2023-05-13T20:01:15.292Z,15.23
2023-05-13T20:03:42.049Z,15.08
2023-05-13T20:06:08.868Z,15.11
2023-05-13T20:08:35.901Z,14.86
2023-05-13T20:11:02.612Z,15.02
2023-05-13T20:13:29.149Z,15.17
2023-05-13T20:15:55.721Z,15.10
2023-05-13T20:18:22.317Z,15.11
2023-05-13T20:20:48.892Z,15.28
2023-05-13T20:23:15.506Z,15.36
2023-05-13T20:25:42.151Z,15.03
2023-05-13T20:28:24.414Z,15.16
2023-05-13T20:30:55.655Z,15.12
2023-05-13T20:33:22.222Z,15.08
2023-05-13T20:35:49.078Z,15.17
2023-05-13T20:39:08.856Z,15.12
2023-05-13T20:42:10.955Z,15.15
2023-05-13T20:44:37.774Z,14.82
2023-05-13T20:47:05.058Z,14.89
2023-05-13T20:49:31.880Z,15.06
2023-05-13T20:52:03.327Z,14.94
2023-05-13T20:54:29.936Z,14.65
2023-05-13T20:56:56.595Z,14.79
2023-05-13T20:59:23.148Z,15.02
2023-05-13T21:01:49.749Z,14.86
2023-05-13T21:04:16.570Z,14.58
2023-05-13T21:06:43.821Z,14.75
2023-05-13T21:09:10.408Z,14.65
2023-05-13T21:11:37.009Z,14.34
2023-05-13T21:14:18.901Z,14.41
2023-05-13T21:16:45.410Z,14.67
2023-05-13T21:19:24.859Z,14.61
2023-05-13T21:21:51.420Z,14.23
2023-05-13T21:28:17.009Z,14.56
2023-05-13T21:30:43.655Z,14.50
2023-05-13T21:33:10.949Z,14.44
2023-05-13T21:35:37.488Z,14.52
2023-05-13T21:38:11.595Z,14.57
2023-05-13T21:40:39.091Z,14.56
2023-05-13T21:43:05.682Z,14.36
2023-05-13T21:45:32.232Z,14.26
2023-05-13T21:47:58.898Z,14.36
2023-05-13T21:50:25.564Z,14.52
2023-05-13T21:52:52.219Z,13.97
2023-05-13T21:55:18.872Z,14.31
2023-05-13T22:00:29.322Z,14.12
2023-05-13T22:03:00.463Z,14.05
2023-05-13T22:05:27.660Z,14.09
2023-05-13T22:11:51.367Z,13.95
2023-05-13T22:14:17.960Z,14.29
2023-05-13T22:16:49.849Z,14.13
2023-05-13T22:19:21.258Z,14.06
2023-05-13T22:21:47.982Z,14.02
2023-05-13T22:24:14.625Z,13.94
2023-05-13T22:26:43.684Z,13.70
2023-05-13T22:29:10.315Z,13.82
2023-05-13T22:31:36.979Z,14.15
2023-05-13T22:34:03.678Z,14.07
2023-05-13T22:36:31.360Z,14.06
2023-05-13T22:38:58.019Z,13.95
2023-05-13T22:43:59.814Z,14.09
2023-05-13T22:46:26.468Z,14.21
2023-05-13T22:48:53.578Z,14.03
2023-05-13T22:52:13.084Z,14.17
2023-05-13T22:57:52.794Z,13.90
2023-05-13T23:00:20.012Z,14.09
2023-05-13T23:02:46.616Z,14.27
2023-05-13T23:05:13.269Z,14.26
2023-05-13T23:07:39.844Z,14.27
2023-05-13T23:10:06.875Z,14.34
2023-05-13T23:12:33.477Z,14.19
2023-05-13T23:15:00.075Z,14.03
2023-05-13T23:17:26.707Z,14.30
2023-05-13T23:19:53.293Z,14.31
2023-05-13T23:22:19.834Z,14.20
2023-05-13T23:24:46.504Z,14.39
2023-05-13T23:27:32.074Z,14.44
2023-05-13T23:29:59.246Z,14.48
2023-05-13T23:32:26.070Z,14.47
2023-05-13T23:34:52.683Z,14.31
2023-05-13T23:37:50.384Z,14.45
2023-05-13T23:40:40.953Z,14.52
2023-05-13T23:43:07.512Z,14.51
2023-05-13T23:45:34.197Z,14.45
2023-05-13T23:48:00.974Z,14.34
2023-05-13T23:50:27.635Z,14.46
2023-05-13T23:58:11.088Z,14.71
